logo
Search for airport 
image banner adimage banner adimage banner ad
image banner ad

YBUS - The Boulders

Located in Mirriwinni, Australia

ICAO - , IATA -

Data provided by Airmate  

General information

Coordinates: S17°21'0" E145°52'0"
Elevation is 420 feet MSL.
Magnetic variation is 7° East
View others Airports in Queensland

Operational data

Special qualification required
Current time UTC:
Current local time:
Weather at : YBCS - Cairns / Cairns Intl ( 53 km )
METAR: YBCS 241830Z AUTO 15012KT 9999 // SCT027 SCT033 BKN040 22/19 Q1016
TAF: TAF YBCS 241726Z 2418/2518 17010KT 9999 -SHRA SCT015 BKN030 FM250000 15014KT 9999 -SHRA BKN030 FM250900 17010KT 9999 -SHRA SCT020 INTER 2418/2500 VRB15G25KT 4000 SHRA FEW010 BKN015
View NOTAMs / SUP AIP / TFR affecting this airport [VIEW]
Communications frequencies: [VIEW]

Runways:

Airport contact information

Address: Mirriwinni Australia

Satellite view of YBUS